createdAt,value
2023-05-24T00:00:22.747Z,99021.34
2023-05-24T00:03:24.750Z,99018.44
2023-05-24T00:06:27.654Z,99015.41
2023-05-24T00:09:33.033Z,99015.94
2023-05-24T00:12:34.895Z,99027.09
2023-05-24T00:15:36.816Z,99028.44
2023-05-24T00:18:41.629Z,99026.06
2023-05-24T00:22:21.393Z,99038.16
2023-05-24T00:25:23.419Z,99033.34
2023-05-24T00:28:25.476Z,99035.13
2023-05-24T00:31:27.466Z,99029.25
2023-05-24T00:34:29.419Z,99026.56
2023-05-24T00:37:31.349Z,99030.13
2023-05-24T00:40:33.335Z,99027.25
2023-05-24T00:43:35.684Z,99024.72
2023-05-24T00:46:38.031Z,99025.78
2023-05-24T00:49:40.742Z,99021.47
2023-05-24T00:52:43.592Z,99030.25
2023-05-24T00:55:47.386Z,99023.78
2023-05-24T00:58:54.608Z,99022.81
2023-05-24T01:01:56.786Z,99017.59
2023-05-24T01:05:00.081Z,99016.78
2023-05-24T01:08:20.620Z,99015.13
2023-05-24T01:11:59.796Z,99022.16
2023-05-24T01:15:15.059Z,99023.34
2023-05-24T01:18:30.383Z,99025.66
2023-05-24T01:21:48.452Z,99022.22
2023-05-24T01:25:06.262Z,99016.84
2023-05-24T01:28:09.619Z,99020.13
2023-05-24T01:31:13.605Z,99019.97
2023-05-24T01:34:16.307Z,99011.22
2023-05-24T01:37:18.396Z,99012.16
2023-05-24T01:40:20.603Z,99014.75
2023-05-24T01:43:22.446Z,99008.75
2023-05-24T01:46:37.537Z,99006.94
2023-05-24T01:49:44.685Z,99008.31
2023-05-24T01:52:48.184Z,99007.34
2023-05-24T01:55:54.143Z,99003.63
2023-05-24T01:58:58.908Z,99007.84
2023-05-24T02:02:01.676Z,99004.44
2023-05-24T02:05:04.165Z,99001.00
2023-05-24T02:08:06.128Z,99007.34
2023-05-24T02:12:07.833Z,99007.50
2023-05-24T02:15:14.853Z,99010.31
2023-05-24T02:18:18.735Z,99001.06
2023-05-24T02:21:20.982Z,98998.69
2023-05-24T02:24:22.996Z,98995.56
2023-05-24T02:27:24.935Z,98999.13
2023-05-24T02:30:27.399Z,98999.34
2023-05-24T02:33:30.041Z,98994.16
2023-05-24T02:36:32.699Z,99002.41
2023-05-24T02:39:34.691Z,99000.41
2023-05-24T02:42:36.707Z,98999.88
2023-05-24T02:45:38.790Z,98997.66
2023-05-24T02:48:41.071Z,99008.00
2023-05-24T02:51:43.094Z,99006.88
2023-05-24T02:54:44.973Z,99010.25
2023-05-24T02:57:48.220Z,99008.84
2023-05-24T03:00:51.063Z,99017.56
2023-05-24T03:29:21.997Z,99021.94
2023-05-24T03:32:25.543Z,99023.28
2023-05-24T03:35:27.572Z,99013.31
2023-05-24T03:38:31.854Z,99021.25
2023-05-24T03:41:33.955Z,99024.53
2023-05-24T03:44:35.950Z,99019.13
2023-05-24T03:47:37.897Z,99020.31
2023-05-24T03:50:39.943Z,99021.56
2023-05-24T03:53:41.904Z,99021.47
2023-05-24T03:56:44.662Z,99028.59
2023-05-24T03:59:46.669Z,99034.78
2023-05-24T04:02:49.337Z,99038.69
2023-05-24T04:05:51.527Z,99032.59
2023-05-24T04:08:53.636Z,99044.78
2023-05-24T04:11:55.836Z,99050.09
2023-05-24T04:14:58.837Z,99057.66
2023-05-24T04:18:03.414Z,99053.41
2023-05-24T04:21:05.657Z,99059.53
2023-05-24T04:24:07.755Z,99067.91
2023-05-24T04:27:09.990Z,99058.22
2023-05-24T04:30:12.225Z,99057.34
2023-05-24T04:33:15.027Z,99060.91
2023-05-24T04:36:17.824Z,99060.38
2023-05-24T04:39:19.783Z,99060.91
2023-05-24T04:42:22.217Z,99065.69
2023-05-24T04:45:25.037Z,99065.94
2023-05-24T04:48:27.306Z,99058.00
2023-05-24T04:51:29.450Z,99050.09
2023-05-24T04:54:31.350Z,99051.69
2023-05-24T04:57:33.434Z,99047.59
2023-05-24T05:00:35.514Z,99051.03
2023-05-24T05:03:37.476Z,99058.16
2023-05-24T05:06:40.632Z,99057.16
2023-05-24T05:09:42.558Z,99056.63
2023-05-24T05:12:44.627Z,99063.72
2023-05-24T05:15:46.579Z,99064.13
2023-05-24T05:18:48.486Z,99074.66
2023-05-24T05:21:50.881Z,99080.94
2023-05-24T05:24:52.963Z,99083.81
2023-05-24T05:27:54.939Z,99086.34
2023-05-24T05:30:56.942Z,99086.41
2023-05-24T05:33:59.017Z,99086.97
2023-05-24T05:37:01.004Z,99091.13
2023-05-24T05:40:04.095Z,99086.72
2023-05-24T05:43:06.038Z,99087.97
2023-05-24T05:46:08.275Z,99084.69
2023-05-24T05:49:10.350Z,99089.84
2023-05-24T05:52:12.390Z,99091.03
2023-05-24T05:55:14.381Z,99100.97
2023-05-24T05:58:16.394Z,99096.81
2023-05-24T06:01:18.337Z,99103.47
2023-05-24T06:04:20.521Z,99097.72
2023-05-24T06:07:22.754Z,99109.91
2023-05-24T06:10:24.772Z,99115.88
2023-05-24T06:13:28.864Z,99122.78
2023-05-24T06:16:32.635Z,99123.09
2023-05-24T06:19:34.939Z,99122.31
2023-05-24T06:22:38.661Z,99126.63
2023-05-24T06:25:43.886Z,99134.34
2023-05-24T06:28:45.838Z,99126.63
2023-05-24T06:31:48.956Z,99131.06
2023-05-24T06:34:51.288Z,99138.03
2023-05-24T06:37:53.186Z,99133.09
2023-05-24T06:40:55.220Z,99142.63
2023-05-24T06:43:57.190Z,99141.97
2023-05-24T06:46:59.170Z,99144.22
2023-05-24T06:50:04.123Z,99143.84
2023-05-24T06:53:06.790Z,99153.47
2023-05-24T06:56:09.555Z,99158.19
2023-05-24T06:59:11.805Z,99151.25
2023-05-24T07:02:13.880Z,99154.00
2023-05-24T07:05:16.078Z,99159.41
2023-05-24T07:08:18.185Z,99158.25
2023-05-24T07:11:20.157Z,99165.25
2023-05-24T07:14:24.100Z,99173.13
2023-05-24T07:17:26.413Z,99176.22
2023-05-24T07:20:28.909Z,99179.44
2023-05-24T07:23:31.259Z,99178.09
2023-05-24T07:26:33.313Z,99177.38
2023-05-24T07:29:35.330Z,99175.38
2023-05-24T07:32:37.559Z,99175.91
2023-05-24T07:35:40.374Z,99179.03
2023-05-24T07:38:42.711Z,99182.44
2023-05-24T07:41:45.084Z,99180.53
2023-05-24T07:44:47.048Z,99187.09
2023-05-24T07:47:49.023Z,99184.34
2023-05-24T07:50:52.148Z,99191.97
2023-05-24T07:53:54.069Z,99193.44
2023-05-24T07:56:57.443Z,99185.69
2023-05-24T07:59:59.435Z,99196.22
2023-05-24T08:03:01.920Z,99191.91
2023-05-24T08:06:04.185Z,99203.31
2023-05-24T08:09:07.725Z,99207.50
2023-05-24T08:12:09.994Z,99204.78
2023-05-24T08:15:11.955Z,99208.38
2023-05-24T08:18:55.379Z,99211.41
2023-05-24T08:22:57.296Z,99218.25
2023-05-24T08:26:20.942Z,99219.94
2023-05-24T08:29:23.005Z,99217.34
2023-05-24T08:32:25.211Z,99225.28
2023-05-24T08:35:27.193Z,99229.59
2023-05-24T08:38:29.492Z,99224.88
2023-05-24T08:41:37.407Z,99234.34
2023-05-24T08:44:47.256Z,99239.66
2023-05-24T08:47:50.747Z,99234.00
2023-05-24T08:50:53.397Z,99245.34
2023-05-24T08:53:57.042Z,99250.06
2023-05-24T08:56:59.652Z,99249.16
2023-05-24T09:00:02.119Z,99256.00
2023-05-24T09:03:06.350Z,99255.47
2023-05-24T09:06:12.180Z,99263.56
2023-05-24T09:09:17.913Z,99261.84
2023-05-24T09:12:35.658Z,99272.50
2023-05-24T09:15:39.989Z,99266.44
2023-05-24T09:18:42.965Z,99265.84
2023-05-24T09:21:45.355Z,99265.31
2023-05-24T09:24:48.634Z,99276.97
2023-05-24T09:27:52.278Z,99284.53
2023-05-24T09:31:05.422Z,99284.53
2023-05-24T09:34:13.533Z,99281.16
2023-05-24T09:37:17.959Z,99281.31
2023-05-24T09:40:20.778Z,99278.72
2023-05-24T09:43:24.909Z,99289.22
2023-05-24T09:46:29.857Z,99284.28
2023-05-24T09:49:32.628Z,99289.28
2023-05-24T09:52:38.439Z,99291.75
2023-05-24T09:55:40.796Z,99290.63
2023-05-24T09:58:42.936Z,99297.06
2023-05-24T10:01:46.246Z,99291.38
2023-05-24T10:04:48.491Z,99295.94
2023-05-24T10:07:51.912Z,99297.03
2023-05-24T10:10:56.560Z,99298.09
2023-05-24T10:13:59.552Z,99295.03
2023-05-24T10:17:10.773Z,99297.38
2023-05-24T10:20:13.050Z,99285.22
2023-05-24T10:34:07.046Z,99293.19
2023-05-24T11:07:58.643Z,99296.16
2023-05-24T11:11:28.654Z,99286.44
2023-05-24T11:14:39.524Z,99285.31
2023-05-24T11:18:09.392Z,99285.97
2023-05-24T11:21:11.529Z,99280.84
2023-05-24T11:24:13.921Z,99284.78
2023-05-24T11:27:16.102Z,99273.50
2023-05-24T11:30:18.453Z,99281.22
2023-05-24T11:33:24.486Z,99276.97
2023-05-24T11:36:26.570Z,99278.81
2023-05-24T11:39:52.838Z,99274.72
2023-05-24T11:42:55.281Z,99269.88
2023-05-24T11:45:57.423Z,99278.06
2023-05-24T11:49:00.205Z,99275.78
2023-05-24T11:52:03.254Z,99273.50
2023-05-24T11:55:06.276Z,99273.78
2023-05-24T11:58:19.772Z,99272.84
2023-05-24T12:01:27.805Z,99275.44
2023-05-24T12:04:30.574Z,99266.63
2023-05-24T12:07:33.124Z,99259.50
2023-05-24T12:10:36.886Z,99259.63
2023-05-24T12:13:40.474Z,99258.44
2023-05-24T12:16:43.896Z,99254.41
2023-05-24T12:19:49.987Z,99270.50
2023-05-24T12:22:53.031Z,99265.94
2023-05-24T12:26:01.912Z,99267.38
2023-05-24T12:29:04.043Z,99261.94
2023-05-24T12:32:11.951Z,99259.03
2023-05-24T12:35:13.976Z,99262.13
2023-05-24T12:38:25.052Z,99262.66
2023-05-24T12:41:30.787Z,99259.09
2023-05-24T12:44:36.109Z,99253.88
2023-05-24T12:47:38.232Z,99245.16
2023-05-24T12:50:40.316Z,99248.97
2023-05-24T12:53:43.421Z,99247.91
2023-05-24T12:56:45.751Z,99243.34
2023-05-24T12:59:48.345Z,99231.69
2023-05-24T13:02:53.075Z,99244.81
2023-05-24T13:05:55.129Z,99246.59
2023-05-24T13:08:57.114Z,99250.03
2023-05-24T13:11:59.022Z,99235.97
2023-05-24T13:15:00.987Z,99229.34
2023-05-24T13:18:02.993Z,99231.56
2023-05-24T13:21:05.583Z,99237.66
2023-05-24T13:24:07.820Z,99232.22
2023-05-24T13:27:10.232Z,99232.06
2023-05-24T13:30:12.628Z,99231.94
2023-05-24T13:33:14.956Z,99231.97
2023-05-24T13:36:17.445Z,99223.66
2023-05-24T13:39:20.383Z,99229.84
2023-05-24T13:42:22.283Z,99229.56
2023-05-24T13:45:25.134Z,99232.53
2023-05-24T13:48:27.197Z,99231.00
2023-05-24T13:51:29.497Z,99231.00
2023-05-24T13:55:18.670Z,99217.44
2023-05-24T13:58:20.814Z,99225.09
2023-05-24T14:01:22.757Z,99224.00
2023-05-24T14:04:24.761Z,99227.16
2023-05-24T14:07:26.979Z,99220.84
2023-05-24T14:10:28.974Z,99222.31
2023-05-24T14:16:36.753Z,99230.97
2023-05-24T14:19:39.081Z,99229.16
2023-05-24T14:22:41.438Z,99235.34
2023-05-24T14:25:46.498Z,99235.69
2023-05-24T14:32:43.872Z,99218.69
2023-05-24T14:35:46.564Z,99229.78
2023-05-24T14:38:48.684Z,99227.50
2023-05-24T14:41:50.721Z,99226.19
2023-05-24T14:44:52.718Z,99231.63
2023-05-24T14:47:54.614Z,99231.31
2023-05-24T14:50:56.625Z,99233.75
2023-05-24T14:53:58.648Z,99226.38
2023-05-24T14:57:01.075Z,99236.81
2023-05-24T15:00:03.863Z,99240.44
2023-05-24T15:07:00.844Z,99245.69
2023-05-24T15:10:03.215Z,99249.91
2023-05-24T15:13:05.695Z,99248.91
2023-05-24T15:16:07.653Z,99253.53
2023-05-24T15:19:10.197Z,99257.34
2023-05-24T15:22:12.178Z,99262.75
2023-05-24T15:25:14.411Z,99260.91
2023-05-24T15:28:18.391Z,99259.09
2023-05-24T15:31:20.511Z,99249.31
2023-05-24T15:34:23.747Z,99251.28
2023-05-24T15:37:26.284Z,99253.88
2023-05-24T15:40:28.526Z,99252.94
2023-05-24T15:43:30.758Z,99258.63
2023-05-24T15:46:32.823Z,99243.88
2023-05-24T15:49:34.984Z,99256.81
2023-05-24T15:52:37.122Z,99262.88
2023-05-24T15:55:39.127Z,99265.00
2023-05-24T15:58:41.124Z,99269.59
2023-05-24T16:01:43.065Z,99281.41
2023-05-24T16:04:44.954Z,99284.00
2023-05-24T16:07:46.920Z,99288.50
2023-05-24T16:10:49.222Z,99285.22
2023-05-24T16:13:51.251Z,99282.38
2023-05-24T16:16:53.277Z,99292.06
2023-05-24T16:19:55.414Z,99293.88
2023-05-24T16:22:58.133Z,99293.13
2023-05-24T16:26:00.213Z,99294.81
2023-05-24T16:29:02.176Z,99296.81
2023-05-24T16:32:04.438Z,99294.84
2023-05-24T16:35:07.568Z,99306.09
2023-05-24T16:38:09.485Z,99306.94
2023-05-24T16:41:11.565Z,99314.59
2023-05-24T16:44:17.805Z,99307.72
2023-05-24T16:47:20.139Z,99310.22
2023-05-24T16:50:22.077Z,99302.13
2023-05-24T16:53:26.132Z,99300.41
2023-05-24T16:56:28.072Z,99309.72
2023-05-24T16:59:30.052Z,99311.94
2023-05-24T17:02:32.124Z,99304.97
2023-05-24T17:05:34.146Z,99307.03
2023-05-24T17:08:36.634Z,99307.13
2023-05-24T17:11:39.696Z,99296.91
2023-05-24T17:14:41.819Z,99291.41
2023-05-24T17:17:43.764Z,99300.22
2023-05-24T17:20:46.062Z,99292.88
2023-05-24T17:23:48.468Z,99294.31
2023-05-24T17:26:50.468Z,99295.31
2023-05-24T17:29:52.414Z,99290.56
2023-05-24T17:32:54.464Z,99290.25
2023-05-24T17:35:57.684Z,99295.53
2023-05-24T17:38:59.555Z,99303.66
2023-05-24T17:42:01.476Z,99303.59
2023-05-24T17:45:04.278Z,99306.22
2023-05-24T17:48:07.089Z,99307.00
2023-05-24T17:51:10.402Z,99308.88
2023-05-24T17:54:12.288Z,99324.16
2023-05-24T17:57:14.198Z,99327.69
2023-05-24T18:00:16.982Z,99328.91
2023-05-24T18:03:22.256Z,99322.56
2023-05-24T18:10:24.469Z,99316.28
2023-05-24T18:13:28.132Z,99327.50
2023-05-24T18:16:31.498Z,99337.78
2023-05-24T18:19:33.538Z,99341.84
2023-05-24T18:22:35.496Z,99345.28
2023-05-24T18:25:37.487Z,99344.88
2023-05-24T18:28:39.514Z,99346.38
2023-05-24T18:31:41.558Z,99350.28
2023-05-24T18:34:43.618Z,99358.09
2023-05-24T18:37:45.522Z,99365.59
2023-05-24T18:44:01.501Z,99367.19
2023-05-24T18:47:07.024Z,99375.94
2023-05-24T18:50:09.507Z,99390.09
2023-05-24T18:53:11.423Z,99391.41
2023-05-24T18:56:13.471Z,99387.31
2023-05-24T18:59:16.830Z,99391.41
2023-05-24T19:02:18.970Z,99383.56
2023-05-24T19:05:21.151Z,99398.16
2023-05-24T19:08:23.074Z,99407.22
2023-05-24T19:11:24.967Z,99403.94
2023-05-24T19:14:26.824Z,99416.03
2023-05-24T19:17:28.802Z,99398.22
2023-05-24T19:20:30.914Z,99415.91
2023-05-24T19:23:32.878Z,99414.31
2023-05-24T19:26:34.856Z,99415.69
2023-05-24T19:29:37.068Z,99421.16
2023-05-24T19:32:39.024Z,99426.25
2023-05-24T19:35:41.210Z,99423.50
2023-05-24T19:38:43.761Z,99431.53
2023-05-24T19:41:45.758Z,99429.72
2023-05-24T19:44:47.726Z,99437.84
2023-05-24T19:47:49.980Z,99433.53
2023-05-24T19:50:51.951Z,99444.69
2023-05-24T19:53:53.882Z,99444.09
2023-05-24T19:56:57.775Z,99447.50
2023-05-24T20:00:00.818Z,99439.72
2023-05-24T20:03:02.776Z,99438.72
2023-05-24T20:06:04.826Z,99442.44
2023-05-24T20:09:06.867Z,99440.91
2023-05-24T20:12:08.940Z,99436.63
2023-05-24T20:15:11.616Z,99439.00
2023-05-24T20:18:13.555Z,99436.25
2023-05-24T20:21:17.456Z,99439.97
2023-05-24T20:24:19.515Z,99443.19
2023-05-24T20:27:21.515Z,99451.44
2023-05-24T20:30:23.556Z,99450.63
2023-05-24T20:33:25.612Z,99455.75
2023-05-24T20:36:27.488Z,99454.47
2023-05-24T20:39:29.434Z,99462.72
2023-05-24T20:42:35.583Z,99463.03
2023-05-24T20:45:37.576Z,99460.56
2023-05-24T20:48:39.812Z,99466.31
2023-05-24T20:51:41.738Z,99466.31
2023-05-24T20:54:43.854Z,99478.78
2023-05-24T20:57:46.162Z,99471.38
2023-05-24T21:00:48.088Z,99474.69
2023-05-24T21:03:50.043Z,99480.00
2023-05-24T21:06:52.022Z,99475.50
2023-05-24T21:09:54.209Z,99479.00
2023-05-24T21:12:56.059Z,99475.69
2023-05-24T21:16:00.437Z,99482.28
2023-05-24T21:19:02.661Z,99480.31
2023-05-24T21:22:04.808Z,99478.69
2023-05-24T21:25:07.219Z,99482.97
2023-05-24T21:28:10.372Z,99486.94
2023-05-24T21:31:12.349Z,99485.91
2023-05-24T21:34:14.306Z,99478.22
2023-05-24T21:37:17.481Z,99483.75
2023-05-24T21:40:19.465Z,99485.13
2023-05-24T21:43:21.790Z,99496.13
2023-05-24T21:46:23.726Z,99485.91
2023-05-24T21:49:27.679Z,99495.84
2023-05-24T21:52:29.647Z,99485.91
2023-05-24T21:55:31.635Z,99493.25
2023-05-24T21:58:33.518Z,99485.16
2023-05-24T22:01:36.905Z,99485.66
2023-05-24T22:04:38.847Z,99478.03
2023-05-24T22:07:40.922Z,99495.59
2023-05-24T22:10:42.812Z,99495.72
2023-05-24T22:13:44.835Z,99475.25
2023-05-24T22:16:46.922Z,99487.97
2023-05-24T22:19:53.193Z,99477.53
2023-05-24T22:22:55.204Z,99487.59
2023-05-24T22:25:57.219Z,99493.63
2023-05-24T22:29:04.028Z,99494.22
2023-05-24T22:32:06.151Z,99492.78
2023-05-24T22:35:08.875Z,99502.00
2023-05-24T22:38:12.840Z,99503.81
2023-05-24T22:41:14.746Z,99500.78
2023-05-24T22:44:16.868Z,99503.63
2023-05-24T22:47:20.182Z,99498.13
2023-05-24T22:50:22.247Z,99499.66
2023-05-24T22:53:32.205Z,99502.47
2023-05-24T22:56:36.068Z,99512.59
2023-05-24T22:59:38.025Z,99505.28
2023-05-24T23:02:39.929Z,99508.50
2023-05-24T23:05:42.212Z,99507.47
2023-05-24T23:08:44.505Z,99523.53
2023-05-24T23:11:46.346Z,99522.59
2023-05-24T23:14:48.293Z,99516.38
2023-05-24T23:17:52.780Z,99514.16
2023-05-24T23:20:55.970Z,99511.56
2023-05-24T23:23:57.910Z,99510.28
2023-05-24T23:26:59.852Z,99510.13
2023-05-24T23:30:01.733Z,99514.16
2023-05-24T23:33:03.711Z,99506.56
2023-05-24T23:36:06.115Z,99521.09
2023-05-24T23:39:10.901Z,99512.03
2023-05-24T23:42:12.867Z,99525.22
2023-05-24T23:45:17.865Z,99526.78
2023-05-24T23:48:23.182Z,99509.31
2023-05-24T23:51:25.143Z,99510.38
2023-05-24T23:54:27.062Z,99521.69
2023-05-24T23:57:29.853Z,99509.66
